createdAt,value
2019-02-06T00:01:17.490Z,5.50
2019-02-06T00:03:47.188Z,7.23
2019-02-06T00:06:17.432Z,5.67
2019-02-06T00:08:47.500Z,6.47
2019-02-06T00:11:17.203Z,4.57
2019-02-06T00:13:46.891Z,4.93
2019-02-06T00:16:16.919Z,6.37
2019-02-06T00:18:46.575Z,7.13
2019-02-06T00:21:16.262Z,7.30
2019-02-06T00:23:45.919Z,7.90
2019-02-06T00:26:15.879Z,5.87
2019-02-06T00:29:17.580Z,4.57
2019-02-06T00:31:47.225Z,5.30
2019-02-06T00:34:19.781Z,4.60
2019-02-06T00:36:49.844Z,4.67
2019-02-06T00:39:19.863Z,4.97
2019-02-06T00:41:49.516Z,6.47
2019-02-06T00:44:19.264Z,6.47
2019-02-06T00:46:48.943Z,6.23
2019-02-06T00:49:19.227Z,4.77
2019-02-06T00:51:48.941Z,5.50
2019-02-06T00:54:18.606Z,5.67
2019-02-06T00:56:48.296Z,3.90
2019-02-06T00:59:17.953Z,5.17
2019-02-06T01:01:48.453Z,5.63
2019-02-06T01:04:18.185Z,4.30
2019-02-06T01:06:48.248Z,5.57
2019-02-06T01:09:18.348Z,5.90
2019-02-06T01:11:47.999Z,6.80
2019-02-06T01:14:17.642Z,3.83
2019-02-06T01:16:47.777Z,4.77
2019-02-06T01:19:17.680Z,4.80
2019-02-06T01:21:47.307Z,5.33
2019-02-06T01:24:16.962Z,3.77
2019-02-06T01:26:46.710Z,4.17
2019-02-06T01:29:16.345Z,4.50
2019-02-06T01:31:46.280Z,4.10
2019-02-06T01:34:16.449Z,4.87
2019-02-06T01:36:46.414Z,4.83
2019-02-06T01:39:16.035Z,4.20
2019-02-06T01:41:45.769Z,3.67
2019-02-06T01:44:15.499Z,4.37
2019-02-06T01:46:45.139Z,4.10
2019-02-06T01:49:14.811Z,5.13
2019-02-06T01:51:44.423Z,6.27
2019-02-06T01:54:14.081Z,4.13
2019-02-06T01:56:43.806Z,4.60
2019-02-06T01:59:13.542Z,5.47
2019-02-06T02:01:43.229Z,4.17
2019-02-06T02:04:12.936Z,4.63
2019-02-06T02:06:42.558Z,2.80
2019-02-06T02:09:20.240Z,5.63
2019-02-06T02:11:49.914Z,6.20
2019-02-06T02:14:19.566Z,5.33
2019-02-06T02:16:49.577Z,5.47
2019-02-06T02:19:19.707Z,6.43
2019-02-06T02:21:49.345Z,4.50
2019-02-06T02:24:19.093Z,5.60
2019-02-06T02:26:48.740Z,4.00
2019-02-06T02:29:18.380Z,7.30
2019-02-06T02:31:48.155Z,4.70
2019-02-06T02:34:17.890Z,6.93
2019-02-06T02:36:48.094Z,6.93
2019-02-06T02:39:17.760Z,5.27
2019-02-06T02:41:47.473Z,6.43
2019-02-06T02:44:17.522Z,6.70
2019-02-06T02:46:47.312Z,7.90
2019-02-06T02:49:17.012Z,7.17
2019-02-06T02:51:46.971Z,5.93
2019-02-06T02:54:17.067Z,7.00
2019-02-06T02:56:46.731Z,6.07
2019-02-06T02:59:16.614Z,5.10
2019-02-06T03:02:08.369Z,6.97
2019-02-06T03:04:45.387Z,5.17
2019-02-06T03:07:15.104Z,4.53
2019-02-06T03:09:45.249Z,5.60
2019-02-06T03:12:16.698Z,5.90
2019-02-06T03:14:46.697Z,6.77
2019-02-06T03:17:16.413Z,4.37
2019-02-06T03:19:46.080Z,5.27
2019-02-06T03:22:16.140Z,7.53
2019-02-06T03:24:45.876Z,7.00
2019-02-06T03:27:16.676Z,5.83
2019-02-06T03:29:46.351Z,5.80
2019-02-06T03:32:16.465Z,5.97
2019-02-06T03:34:46.083Z,6.23
2019-02-06T03:37:15.849Z,6.73
2019-02-06T03:39:45.589Z,7.47
2019-02-06T03:42:15.241Z,8.83
2019-02-06T03:44:45.219Z,7.90
2019-02-06T03:47:14.927Z,7.77
2019-02-06T03:49:44.624Z,7.50
2019-02-06T03:52:14.853Z,6.20
2019-02-06T03:54:44.937Z,5.30
2019-02-06T03:57:14.552Z,5.97
2019-02-06T03:59:44.712Z,5.50
2019-02-06T04:02:14.357Z,7.10
2019-02-06T04:04:43.977Z,5.40
2019-02-06T04:07:13.843Z,7.27
2019-02-06T04:09:43.466Z,7.23
2019-02-06T04:12:13.110Z,7.73
2019-02-06T04:14:43.062Z,6.67
2019-02-06T04:17:12.700Z,4.87
2019-02-06T04:19:42.368Z,10.47
2019-02-06T04:22:12.175Z,6.10
2019-02-06T04:24:41.799Z,6.60
2019-02-06T04:27:11.688Z,7.63
2019-02-06T04:29:41.727Z,6.33
2019-02-06T04:32:11.402Z,6.47
2019-02-06T04:34:41.090Z,5.93
2019-02-06T04:37:10.742Z,5.90
2019-02-06T04:39:40.390Z,9.20
2019-02-06T04:42:10.055Z,6.77
2019-02-06T04:44:39.708Z,7.60
2019-02-06T04:47:09.412Z,9.17
2019-02-06T04:49:39.020Z,5.53
2019-02-06T04:52:09.107Z,7.30
2019-02-06T04:54:38.762Z,7.13
2019-02-06T04:57:09.527Z,7.47
2019-02-06T04:59:39.855Z,8.17
2019-02-06T05:02:09.532Z,7.47
2019-02-06T05:04:39.280Z,9.83
2019-02-06T05:07:18.788Z,7.67
2019-02-06T05:09:40.481Z,10.03
2019-02-06T05:12:10.165Z,6.60
2019-02-06T05:14:40.266Z,6.30
2019-02-06T05:17:09.918Z,8.47
2019-02-06T05:19:40.124Z,6.37
2019-02-06T05:22:09.814Z,7.03
2019-02-06T05:24:39.856Z,9.20
2019-02-06T05:27:13.624Z,7.30
2019-02-06T05:29:43.911Z,7.20
2019-02-06T05:32:13.868Z,7.90
2019-02-06T05:34:43.893Z,5.77
2019-02-06T05:37:13.616Z,7.30
2019-02-06T05:39:43.279Z,7.33
2019-02-06T05:42:13.008Z,7.83
2019-02-06T05:44:43.300Z,5.40
2019-02-06T05:47:12.994Z,12.17
2019-02-06T05:49:42.851Z,8.90
2019-02-06T05:52:12.629Z,6.50
2019-02-06T05:54:42.684Z,6.73
2019-02-06T05:57:12.690Z,6.37
2019-02-06T05:59:42.496Z,6.53
2019-02-06T06:02:13.287Z,7.13
2019-02-06T06:04:43.352Z,6.43
2019-02-06T06:07:13.248Z,8.30
2019-02-06T06:09:43.571Z,6.37
2019-02-06T06:12:13.666Z,5.97
2019-02-06T06:14:43.632Z,6.47
2019-02-06T06:17:13.768Z,7.57
2019-02-06T06:19:43.740Z,6.10
2019-02-06T06:22:13.963Z,7.20
2019-02-06T06:24:43.601Z,7.43
2019-02-06T06:27:13.294Z,5.40
2019-02-06T06:29:42.952Z,5.47
2019-02-06T06:32:12.620Z,6.50
2019-02-06T06:34:42.642Z,4.93
2019-02-06T06:37:12.852Z,5.20
2019-02-06T06:39:42.915Z,7.30
2019-02-06T06:42:12.658Z,6.00
2019-02-06T06:44:42.689Z,8.00
2019-02-06T06:47:12.867Z,8.17
2019-02-06T06:49:43.199Z,7.30
2019-02-06T06:52:13.407Z,10.30
2019-02-06T06:54:43.634Z,6.47
2019-02-06T06:57:13.658Z,5.43
2019-02-06T06:59:43.725Z,6.57
2019-02-06T07:02:13.782Z,10.23
2019-02-06T07:04:43.940Z,5.97
2019-02-06T07:07:14.132Z,6.50
2019-02-06T07:09:45.806Z,8.00
2019-02-06T07:12:15.936Z,7.73
2019-02-06T07:14:46.151Z,6.17
2019-02-06T07:17:16.554Z,6.47
2019-02-06T07:19:46.706Z,6.53
2019-02-06T07:22:16.743Z,9.70
2019-02-06T07:24:46.856Z,5.03
2019-02-06T07:27:17.141Z,6.60
2019-02-06T07:29:47.256Z,11.33
2019-02-06T07:32:17.640Z,7.10
2019-02-06T07:34:47.611Z,10.47
2019-02-06T07:37:17.743Z,4.77
2019-02-06T07:39:48.012Z,10.27
2019-02-06T07:42:25.488Z,5.00
2019-02-06T07:44:56.041Z,8.67
2019-02-06T07:47:26.083Z,5.50
2019-02-06T07:49:56.109Z,10.40
2019-02-06T07:52:26.290Z,6.23
2019-02-06T07:54:56.328Z,7.23
2019-02-06T07:57:26.154Z,11.07
2019-02-06T07:59:56.417Z,7.90
2019-02-06T08:02:26.522Z,5.40
2019-02-06T08:04:56.175Z,9.40
2019-02-06T08:07:26.125Z,6.43
2019-02-06T08:09:56.318Z,9.97
2019-02-06T08:12:26.348Z,8.07
2019-02-06T08:14:56.468Z,8.23
2019-02-06T08:17:26.407Z,9.73
2019-02-06T08:19:56.629Z,6.00
2019-02-06T08:22:26.841Z,4.93
2019-02-06T08:24:56.979Z,5.13
2019-02-06T08:27:27.067Z,5.30
2019-02-06T08:29:57.090Z,4.80
2019-02-06T08:32:27.123Z,5.13
2019-02-06T08:34:57.183Z,4.53
2019-02-06T08:37:27.027Z,4.23
2019-02-06T08:39:57.064Z,5.27
2019-02-06T08:42:27.644Z,5.73
2019-02-06T08:44:57.816Z,3.57
2019-02-06T08:47:27.940Z,4.83
2019-02-06T08:49:57.976Z,7.30
2019-02-06T08:52:27.960Z,5.37
2019-02-06T08:54:58.081Z,6.10
2019-02-06T08:57:28.435Z,6.43
2019-02-06T08:59:58.074Z,6.23
2019-02-06T09:02:28.241Z,5.60
2019-02-06T09:04:58.271Z,3.20
2019-02-06T09:07:28.476Z,4.60
2019-02-06T09:09:58.604Z,5.80
2019-02-06T09:12:28.736Z,4.60
2019-02-06T09:14:59.038Z,7.20
2019-02-06T09:17:29.075Z,4.03
2019-02-06T09:19:59.091Z,4.13
2019-02-06T09:22:29.276Z,4.13
2019-02-06T09:24:59.735Z,6.03
2019-02-06T09:27:29.736Z,4.07
2019-02-06T09:29:59.923Z,3.17
2019-02-06T09:32:30.087Z,6.67
2019-02-06T09:35:00.305Z,4.60
2019-02-06T09:37:30.415Z,3.43
2019-02-06T09:40:00.754Z,6.50
2019-02-06T09:42:30.660Z,4.63
2019-02-06T09:45:00.778Z,3.90
2019-02-06T09:47:30.796Z,4.43
2019-02-06T09:50:00.927Z,7.47
2019-02-06T09:52:30.995Z,4.23
2019-02-06T09:55:01.275Z,6.13
2019-02-06T09:57:31.385Z,5.30
2019-02-06T10:00:01.494Z,3.50
2019-02-06T10:02:31.632Z,6.10
2019-02-06T10:05:01.677Z,4.17
2019-02-06T10:07:31.822Z,5.07
2019-02-06T10:10:02.470Z,4.50
2019-02-06T10:12:32.687Z,5.43
2019-02-06T10:15:02.926Z,5.97
2019-02-06T10:17:36.074Z,4.70
2019-02-06T10:20:04.930Z,4.07
2019-02-06T10:22:35.323Z,4.30
2019-02-06T10:25:05.829Z,4.40
2019-02-06T10:27:38.262Z,5.83
2019-02-06T10:30:12.066Z,4.90
2019-02-06T10:32:41.986Z,6.57
2019-02-06T10:35:12.078Z,4.67
2019-02-06T10:37:42.258Z,4.47
2019-02-06T10:40:12.554Z,4.53
2019-02-06T10:43:01.319Z,5.60
2019-02-06T10:45:31.508Z,4.40
2019-02-06T10:48:01.656Z,5.83
2019-02-06T10:50:34.015Z,5.10
2019-02-06T10:53:04.590Z,7.67
2019-02-06T10:55:34.537Z,3.20
2019-02-06T10:58:04.807Z,3.40
2019-02-06T11:00:40.571Z,6.80
2019-02-06T11:03:10.687Z,6.13
2019-02-06T11:05:41.007Z,4.30
2019-02-06T11:08:11.071Z,5.87
2019-02-06T11:10:41.106Z,5.13
2019-02-06T11:13:11.353Z,6.27
2019-02-06T11:15:41.286Z,4.77
2019-02-06T11:18:11.577Z,6.60
2019-02-06T11:20:41.939Z,5.83
2019-02-06T11:23:11.893Z,6.23
2019-02-06T11:25:41.931Z,4.50
2019-02-06T11:28:12.115Z,4.07
2019-02-06T11:30:42.402Z,5.80
2019-02-06T11:33:12.458Z,3.40
2019-02-06T11:35:42.578Z,5.90
2019-02-06T11:38:12.569Z,3.37
2019-02-06T11:40:42.706Z,5.20
2019-02-06T11:43:13.144Z,5.40
2019-02-06T11:45:43.203Z,4.07
2019-02-06T11:48:13.212Z,3.43
2019-02-06T11:50:44.126Z,4.30
2019-02-06T11:53:19.292Z,4.73
2019-02-06T11:55:49.817Z,4.10
2019-02-06T11:58:20.068Z,3.97
2019-02-06T12:01:08.589Z,5.97
2019-02-06T12:03:38.735Z,4.03
2019-02-06T12:06:09.072Z,4.33
2019-02-06T12:08:39.120Z,4.47
2019-02-06T12:11:09.388Z,3.77
2019-02-06T12:13:39.611Z,5.10
2019-02-06T12:16:10.139Z,4.03
2019-02-06T12:18:40.212Z,3.77
2019-02-06T12:21:10.576Z,5.13
2019-02-06T12:23:40.688Z,3.70
2019-02-06T12:26:10.423Z,5.37
2019-02-06T12:28:40.551Z,4.80
2019-02-06T12:31:10.672Z,3.27
2019-02-06T12:33:40.520Z,6.00
2019-02-06T12:36:11.133Z,5.40
2019-02-06T12:38:52.726Z,8.23
2019-02-06T12:41:12.766Z,4.80
2019-02-06T12:43:42.898Z,5.33
2019-02-06T12:46:12.825Z,5.43
2019-02-06T12:48:42.834Z,8.37
2019-02-06T12:51:12.866Z,8.00
2019-02-06T12:53:43.387Z,9.23
2019-02-06T12:56:13.293Z,6.53
2019-02-06T12:58:43.420Z,5.70
2019-02-06T13:01:13.460Z,7.30
2019-02-06T13:03:43.437Z,5.63
2019-02-06T13:06:13.478Z,5.13
2019-02-06T13:08:43.874Z,6.03
2019-02-06T13:11:13.502Z,6.30
2019-02-06T13:13:45.345Z,6.73
2019-02-06T13:16:15.638Z,5.20
2019-02-06T13:18:45.609Z,4.87
2019-02-06T13:21:15.727Z,5.90
2019-02-06T13:23:45.881Z,4.63
2019-02-06T13:26:16.078Z,6.07
2019-02-06T13:28:46.080Z,3.43
2019-02-06T13:31:16.420Z,6.17
2019-02-06T13:33:46.401Z,6.63
2019-02-06T13:36:16.952Z,3.87
2019-02-06T13:38:47.001Z,4.67
2019-02-06T13:41:16.725Z,4.87
2019-02-06T13:43:46.675Z,5.53
2019-02-06T13:46:16.724Z,3.93
2019-02-06T13:48:46.722Z,4.60
2019-02-06T13:51:19.610Z,4.93
2019-02-06T13:53:48.776Z,4.13
2019-02-06T13:56:18.688Z,3.80
2019-02-06T13:58:48.666Z,7.00
2019-02-06T14:01:25.664Z,3.53
2019-02-06T14:03:50.461Z,4.30
2019-02-06T14:06:20.544Z,4.50
2019-02-06T14:08:50.705Z,4.77
2019-02-06T14:11:20.988Z,4.67
2019-02-06T14:13:51.008Z,4.10
2019-02-06T14:16:21.079Z,3.10
2019-02-06T14:18:51.327Z,4.13
2019-02-06T14:21:21.398Z,3.57
2019-02-06T14:24:19.756Z,4.13
2019-02-06T14:26:59.817Z,3.40
2019-02-06T14:30:22.436Z,3.30
2019-02-06T14:33:21.998Z,3.37
2019-02-06T14:36:22.668Z,3.93
2019-02-06T14:39:20.829Z,3.60
2019-02-06T14:42:40.660Z,3.33
2019-02-06T14:45:54.562Z,3.83
2019-02-06T14:48:50.569Z,2.90
2019-02-06T14:51:50.693Z,3.37
2019-02-06T14:54:51.428Z,5.00
2019-02-06T14:57:56.094Z,3.63
2019-02-06T15:00:45.849Z,5.63
2019-02-06T15:03:46.447Z,4.73
2019-02-06T15:06:35.697Z,4.07
2019-02-06T15:09:46.555Z,4.23
2019-02-06T15:13:00.317Z,5.13
2019-02-06T15:15:50.850Z,4.47
2019-02-06T15:18:54.311Z,4.33
2019-02-06T15:21:56.128Z,5.07
2019-02-06T15:25:02.759Z,4.10
2019-02-06T15:27:53.772Z,4.20
2019-02-06T15:30:53.030Z,5.40
2019-02-06T15:33:59.182Z,4.13
2019-02-06T15:37:00.963Z,4.23
2019-02-06T15:40:07.380Z,4.27
2019-02-06T15:43:20.138Z,8.23
2019-02-06T15:46:14.203Z,3.37
2019-02-06T15:48:56.482Z,5.40
2019-02-06T15:52:15.606Z,5.83
2019-02-06T15:55:21.257Z,3.50
2019-02-06T15:58:20.410Z,7.57
2019-02-06T16:01:13.612Z,5.20
2019-02-06T16:04:37.575Z,5.20
2019-02-06T16:08:02.254Z,6.23
2019-02-06T16:11:03.367Z,7.13
2019-02-06T16:14:08.416Z,6.07
2019-02-06T16:17:12.519Z,8.73
2019-02-06T16:20:20.702Z,6.03
2019-02-06T16:23:40.662Z,7.33
2019-02-06T16:26:53.145Z,5.13
2019-02-06T16:30:08.300Z,4.60
2019-02-06T16:33:21.785Z,5.67
2019-02-06T16:36:04.315Z,6.37
2019-02-06T16:39:10.636Z,5.60
2019-02-06T16:42:45.137Z,6.27
2019-02-06T16:45:55.936Z,5.23
2019-02-06T16:48:54.084Z,6.77
2019-02-06T16:51:51.633Z,5.93
2019-02-06T16:55:06.943Z,4.87
2019-02-06T16:58:09.008Z,6.30
2019-02-06T17:01:08.291Z,6.07
2019-02-06T17:04:20.093Z,6.87
2019-02-06T17:07:08.799Z,6.73
2019-02-06T17:10:04.113Z,3.87
2019-02-06T17:13:04.669Z,4.83
2019-02-06T17:16:36.085Z,5.83
2019-02-06T17:19:49.962Z,5.30
2019-02-06T17:22:47.461Z,5.87
2019-02-06T17:25:39.963Z,5.77
2019-02-06T17:29:05.155Z,6.37
2019-02-06T17:32:08.864Z,5.17
2019-02-06T17:34:55.214Z,5.20
2019-02-06T17:38:01.708Z,7.73
2019-02-06T17:41:37.200Z,5.87
2019-02-06T17:44:35.286Z,5.90
2019-02-06T17:47:33.873Z,5.27
2019-02-06T17:50:35.955Z,4.87
2019-02-06T17:53:35.919Z,7.00
2019-02-06T17:56:06.281Z,5.90
2019-02-06T17:58:39.111Z,4.63
2019-02-06T18:01:21.977Z,5.00
2019-02-06T18:03:55.579Z,6.50
2019-02-06T18:06:25.210Z,6.43
2019-02-06T18:08:57.058Z,4.77
2019-02-06T18:11:26.969Z,7.23
2019-02-06T18:13:57.342Z,4.80
2019-02-06T18:16:27.040Z,5.70
2019-02-06T18:18:56.748Z,5.40
2019-02-06T18:21:26.628Z,4.37
2019-02-06T18:23:56.291Z,4.77
2019-02-06T18:26:26.440Z,5.73
2019-02-06T18:28:56.120Z,6.63
2019-02-06T18:31:25.766Z,4.83
2019-02-06T18:33:56.049Z,3.93
2019-02-06T18:36:25.685Z,6.93
2019-02-06T18:38:55.302Z,4.90
2019-02-06T18:41:25.264Z,5.00
2019-02-06T18:43:55.212Z,7.40
2019-02-06T18:46:24.929Z,4.07
2019-02-06T18:48:54.619Z,4.73
2019-02-06T18:51:24.326Z,4.53
2019-02-06T18:53:54.102Z,4.60
2019-02-06T18:56:23.859Z,5.33
2019-02-06T18:58:53.750Z,4.67
2019-02-06T19:01:23.988Z,4.03
2019-02-06T19:03:54.281Z,6.63
2019-02-06T19:06:24.346Z,5.23
2019-02-06T19:08:54.624Z,3.77
2019-02-06T19:11:24.821Z,5.07
2019-02-06T19:13:54.447Z,4.70
2019-02-06T19:16:24.099Z,6.23
2019-02-06T19:18:54.225Z,5.43
2019-02-06T19:21:23.929Z,4.63
2019-02-06T19:23:53.622Z,4.73
2019-02-06T19:26:23.461Z,7.63
2019-02-06T19:28:53.169Z,7.43
2019-02-06T19:31:22.844Z,5.20
2019-02-06T19:33:53.216Z,7.47
2019-02-06T19:36:23.558Z,4.83
2019-02-06T19:38:53.231Z,6.57
2019-02-06T19:41:22.877Z,4.60
2019-02-06T19:43:53.045Z,6.70
2019-02-06T19:46:23.043Z,6.17
2019-02-06T19:48:52.723Z,5.63
2019-02-06T19:51:22.555Z,7.67
2019-02-06T19:53:52.648Z,9.67
2019-02-06T19:56:22.320Z,7.13
2019-02-06T19:58:52.303Z,6.07
2019-02-06T20:01:22.065Z,8.03
2019-02-06T20:03:52.762Z,5.00
2019-02-06T20:06:29.690Z,5.30
2019-02-06T20:09:01.448Z,5.63
2019-02-06T20:11:31.604Z,7.00
2019-02-06T20:14:01.417Z,7.03
2019-02-06T20:16:31.108Z,5.57
2019-02-06T20:19:01.234Z,5.10
2019-02-06T20:21:30.912Z,5.43
2019-02-06T20:24:01.913Z,6.83
2019-02-06T20:26:32.102Z,5.97
2019-02-06T20:29:02.222Z,8.23
2019-02-06T20:31:31.912Z,5.70
2019-02-06T20:34:02.135Z,4.37
2019-02-06T20:36:31.943Z,5.63
2019-02-06T20:39:02.316Z,5.70
2019-02-06T20:41:32.118Z,6.73
2019-02-06T20:44:01.854Z,4.53
2019-02-06T20:46:34.901Z,5.63
2019-02-06T20:49:04.907Z,4.43
2019-02-06T20:51:35.236Z,6.73
2019-02-06T20:54:06.537Z,6.30
2019-02-06T20:56:38.111Z,4.00
2019-02-06T20:59:08.343Z,4.27
2019-02-06T21:01:38.538Z,6.37
2019-02-06T21:04:08.332Z,3.40
2019-02-06T21:06:38.039Z,2.90
2019-02-06T21:09:13.617Z,5.63
2019-02-06T21:11:43.228Z,5.70
2019-02-06T21:14:12.878Z,5.33
2019-02-06T21:16:42.653Z,3.97
2019-02-06T21:19:12.281Z,5.77
2019-02-06T21:21:42.031Z,4.47
2019-02-06T21:24:11.875Z,4.30
2019-02-06T21:26:44.349Z,6.17
2019-02-06T21:29:13.138Z,4.67
2019-02-06T21:31:42.760Z,3.90
2019-02-06T21:34:12.504Z,3.93
2019-02-06T21:36:42.785Z,3.70
2019-02-06T21:39:12.454Z,3.63
2019-02-06T21:41:42.211Z,4.83
2019-02-06T21:44:11.998Z,2.50
2019-02-06T21:46:41.862Z,3.93
2019-02-06T21:49:11.704Z,5.50
2019-02-06T21:51:41.339Z,3.13
2019-02-06T21:54:12.032Z,2.53
2019-02-06T21:56:42.115Z,2.50
2019-02-06T21:59:11.836Z,2.97
2019-02-06T22:01:41.708Z,2.17
2019-02-06T22:04:11.381Z,2.50
2019-02-06T22:06:42.942Z,1.87
2019-02-06T22:09:12.750Z,1.60
2019-02-06T22:11:42.404Z,2.23
2019-02-06T22:14:12.120Z,2.13
2019-02-06T22:16:41.802Z,1.70
2019-02-06T22:19:12.011Z,3.87
2019-02-06T22:21:41.790Z,3.63
2019-02-06T22:24:11.423Z,2.60
2019-02-06T22:26:41.047Z,4.57
2019-02-06T22:29:10.764Z,3.80
2019-02-06T22:31:40.873Z,3.20
2019-02-06T22:34:10.490Z,4.33
2019-02-06T22:36:40.311Z,4.70
2019-02-06T22:39:12.564Z,6.80
2019-02-06T22:41:42.251Z,5.27
2019-02-06T22:44:12.034Z,5.47
2019-02-06T22:46:41.789Z,6.33
2019-02-06T22:49:11.672Z,7.67
2019-02-06T22:51:41.518Z,7.97
2019-02-06T22:54:11.245Z,10.00
2019-02-06T22:56:41.339Z,10.67
2019-02-06T22:59:11.358Z,10.33
2019-02-06T23:01:49.760Z,12.97
2019-02-06T23:04:19.631Z,15.13
2019-02-06T23:06:49.387Z,15.00
2019-02-06T23:09:19.159Z,15.80
2019-02-06T23:11:48.968Z,17.03
2019-02-06T23:14:19.602Z,15.83
2019-02-06T23:16:49.569Z,16.37
2019-02-06T23:19:19.314Z,17.53
2019-02-06T23:21:49.125Z,18.33
2019-02-06T23:24:18.832Z,18.53
2019-02-06T23:26:48.596Z,18.53
2019-02-06T23:29:18.959Z,19.30
2019-02-06T23:31:48.644Z,19.60
2019-02-06T23:34:18.411Z,20.23
2019-02-06T23:36:48.456Z,19.77
2019-02-06T23:39:19.080Z,20.20
2019-02-06T23:41:48.866Z,18.83
2019-02-06T23:44:28.702Z,22.53
2019-02-06T23:46:50.066Z,19.03
2019-02-06T23:49:20.238Z,18.87
2019-02-06T23:51:50.203Z,19.83
2019-02-06T23:54:19.977Z,18.87
2019-02-06T23:56:50.096Z,18.23
2019-02-06T23:59:20.292Z,17.80
